Chicago Bridge — H9NR — position and weather

sailwx.info

Track history (hours):
 
Tides and Currents Weather Stations Pressure Air Temp Water Temp Dewpoint Dewpoint Depression Visibility Wind Speed Wind Dir Waves Ship Positions

Chicago Bridge

Last reported at 2014-Jul-28 22:08 UTC. Time now 2014-Jul-30 03:05 UTC.
Position N 35°05' E 140°45'.

Length 279 m; draft 12.4 m.

Type: Ship (hazmat cat B). MMSI: 352018000.

Date/timePositionNaut miles runAvg speedWind from/ knotsBaromVisibWave heightAir tempDewpointWater temp
2014-Jul-28 22:08N 35°05' E 140°45'1824.9
2014-Jul-28 21:24N 34°57' E 140°25'2023.6
2014-Jul-28 20:33N 34°49' E 140°03'2221.6
2014-Jul-28 19:33N 34°40' E 139°39'2019.9
2014-Jul-28 18:33N 34°35' E 139°15'  
2014-Jul-26 07:33N 24°26' E 119°07'4018.8
2014-Jul-26 05:24N 24°15' E 118°25'1416.4
2014-Jul-26 04:33N 24°20' E 118°11'1110.6
2014-Jul-26 03:33N 24°26' E 118°01'3 2.6
2014-Jul-26 02:25N 24°27' E 117°58'0 0.0
2014-Jul-26 01:13N 24°27' E 117°58'0 0.0
2014-Jul-26 00:13N 24°27' E 117°58'0 0.0
2014-Jul-25 23:19N 24°27' E 117°58'0 0.0
2014-Jul-25 22:19N 24°27' E 117°58'0 0.0
2014-Jul-25 21:25N 24°27' E 117°58'0 0.0
2014-Jul-25 20:31N 24°27' E 117°58'0 0.0
2014-Jul-25 19:31N 24°27' E 117°58'0 0.0
2014-Jul-25 18:31N 24°27' E 117°58'0 0.0
2014-Jul-25 17:25N 24°27' E 117°58'0 0.0
2014-Jul-25 16:31N 24°27' E 117°58'0 0.0
2014-Jul-25 15:25N 24°27' E 117°58'0 0.0
2014-Jul-25 10:25N 24°27' E 117°58'0 0.0
2014-Jul-25 09:31N 24°27' E 117°58'0 0.0
2014-Jul-25 08:31N 24°27' E 117°58'0 0.0
2014-Jul-25 07:25N 24°27' E 117°58'0 0.0
2014-Jul-25 05:24N 24°27' E 117°58'0 0.0
2014-Jul-25 04:33N 24°27' E 117°58'7 6.7
2014-Jul-25 03:33N 24°25' E 118°05'1111.3
2014-Jul-25 02:33N 24°17' E 118°14'1110.6
2014-Jul-25 01:33N 24°14' E 118°25'0 0.1
2014-Jul-25 00:22N 24°14' E 118°25'0 0.0
2014-Jul-24 23:28N 24°14' E 118°25'0 0.0
2014-Jul-24 21:28N 24°14' E 118°25'0 0.0
2014-Jul-24 20:28N 24°14' E 118°25'0 0.0
2014-Jul-24 19:28N 24°14' E 118°25'0 0.0
2014-Jul-24 18:28N 24°14' E 118°25'0 0.0
2014-Jul-24 17:28N 24°14' E 118°25'0 0.0
2014-Jul-24 16:22N 24°14' E 118°25'0 0.0
2014-Jul-24 15:28N 24°14' E 118°25'0 0.0
2014-Jul-24 12:22N 24°14' E 118°25'0 0.0
2014-Jul-24 11:28N 24°14' E 118°25'0 0.0
2014-Jul-24 10:16N 24°14' E 118°25'0 0.0
2014-Jul-24 09:28N 24°14' E 118°25'0 0.0
2014-Jul-24 08:16N 24°14' E 118°25'0 0.1
2014-Jul-24 07:16N 24°14' E 118°25'0 0.0
2014-Jul-24 06:22N 24°14' E 118°25'0 0.0
2014-Jul-24 05:22N 24°14' E 118°25'0 0.1
2014-Jul-24 04:22N 24°14' E 118°25'0 0.0
2014-Jul-24 03:22N 24°14' E 118°25'3 3.7
2014-Jul-24 02:24N 24°11' E 118°23'10 5.1
2014-Jul-24 00:32N 24°03' E 118°18'1110.7
2014-Jul-23 23:30N 23°54' E 118°10'1411.1
2014-Jul-23 22:15N 23°44' E 118°00'811.3
2014-Jul-23 21:31N 23°37' E 117°55'1211.6
2014-Jul-23 20:32N 23°29' E 117°47'1211.7
2014-Jul-23 19:31N 23°19' E 117°39'4611.7
2014-Jul-23 15:31N 22°43' E 117°08'158 5.7
2014-Jul-22 11:32N 22°34' E 114°16'0 0.4
2014-Jul-22 10:17N 22°34' E 114°16'0 0.0
2014-Jul-22 09:33N 22°34' E 114°16'0 0.0
2014-Jul-22 08:27N 22°34' E 114°16'0 0.0
2014-Jul-22 07:33N 22°34' E 114°16'0 0.0
2014-Jul-22 06:33N 22°34' E 114°16'0 0.0
2014-Jul-22 05:31N 22°34' E 114°16'0 0.0
2014-Jul-22 04:33N 22°34' E 114°16'0 0.0
2014-Jul-22 03:19N 22°34' E 114°16'0 0.0
2014-Jul-22 02:33N 22°34' E 114°16'0 0.0
2014-Jul-22 00:31N 22°34' E 114°16'0 0.0
2014-Jul-21 23:33N 22°34' E 114°16'0 0.0
2014-Jul-21 22:33N 22°34' E 114°16'0 0.0
2014-Jul-21 21:33N 22°34' E 114°16'0 0.0
2014-Jul-21 20:33N 22°34' E 114°16'0 0.0
2014-Jul-21 20:18N 22°34' E 114°16'0 0.0
2014-Jul-21 19:32N 22°34' E 114°16'0 0.5
2014-Jul-21 18:33N 22°34' E 114°16'17 3.4
2014-Jul-21 13:33N 22°19' E 114°06'1 0.1
2014-Jul-20 20:12N 22°20' E 114°08'0 0.0
2014-Jul-20 19:30N 22°20' E 114°08'0 0.0
2014-Jul-20 16:24N 22°20' E 114°08'11 5.9
2014-Jul-20 14:31N 22°10' E 114°13'24 2.0
2014-Jul-20 02:07N 22°34' E 114°16'0 0.3
2014-Jul-20 01:32N 22°34' E 114°16'0 0.0
2014-Jul-20 00:32N 22°34' E 114°16'0 0.0
2014-Jul-19 23:32N 22°34' E 114°16'0 0.0
2014-Jul-19 21:32N 22°34' E 114°16'0 0.0
2014-Jul-19 18:26N 22°34' E 114°16'0 0.0
2014-Jul-19 16:32N 22°34' E 114°16'0 0.0
2014-Jul-19 14:26N 22°34' E 114°16'0 0.1
2014-Jul-19 11:26N 22°34' E 114°17'  
Track history (hours):
 
Tides and Currents Weather Stations Pressure Air Temp Water Temp Dewpoint Dewpoint Depression Visibility Wind Speed Wind Dir Waves Ship Positions

Chicago Bridge

Last reported at 2014-Jul-28 22:08 UTC. Time now 2014-Jul-30 03:05 UTC.
Position N 35°05' E 140°45'.

Length 279 m; draft 12.4 m.

Type: Ship (hazmat cat B). MMSI: 352018000.

Date/timePositionNaut miles runAvg speedWind from/ knotsBaromVisibWave heightAir tempDewpointWater temp
2014-Jul-28 22:08N 35°05' E 140°45'1824.9
2014-Jul-28 21:24N 34°57' E 140°25'2023.6
2014-Jul-28 20:33N 34°49' E 140°03'2221.6
2014-Jul-28 19:33N 34°40' E 139°39'2019.9
2014-Jul-28 18:33N 34°35' E 139°15'  
2014-Jul-26 07:33N 24°26' E 119°07'4018.8
2014-Jul-26 05:24N 24°15' E 118°25'1416.4
2014-Jul-26 04:33N 24°20' E 118°11'1110.6
2014-Jul-26 03:33N 24°26' E 118°01'3 2.6
2014-Jul-26 02:25N 24°27' E 117°58'0 0.0
2014-Jul-26 01:13N 24°27' E 117°58'0 0.0
2014-Jul-26 00:13N 24°27' E 117°58'0 0.0
2014-Jul-25 23:19N 24°27' E 117°58'0 0.0
2014-Jul-25 22:19N 24°27' E 117°58'0 0.0
2014-Jul-25 21:25N 24°27' E 117°58'0 0.0
2014-Jul-25 20:31N 24°27' E 117°58'0 0.0
2014-Jul-25 19:31N 24°27' E 117°58'0 0.0
2014-Jul-25 18:31N 24°27' E 117°58'0 0.0
2014-Jul-25 17:25N 24°27' E 117°58'0 0.0
2014-Jul-25 16:31N 24°27' E 117°58'0 0.0
2014-Jul-25 15:25N 24°27' E 117°58'0 0.0
2014-Jul-25 10:25N 24°27' E 117°58'0 0.0
2014-Jul-25 09:31N 24°27' E 117°58'0 0.0
2014-Jul-25 08:31N 24°27' E 117°58'0 0.0
2014-Jul-25 07:25N 24°27' E 117°58'0 0.0
2014-Jul-25 05:24N 24°27' E 117°58'0 0.0
2014-Jul-25 04:33N 24°27' E 117°58'7 6.7
2014-Jul-25 03:33N 24°25' E 118°05'1111.3
2014-Jul-25 02:33N 24°17' E 118°14'1110.6
2014-Jul-25 01:33N 24°14' E 118°25'0 0.1
2014-Jul-25 00:22N 24°14' E 118°25'0 0.0
2014-Jul-24 23:28N 24°14' E 118°25'0 0.0
2014-Jul-24 21:28N 24°14' E 118°25'0 0.0
2014-Jul-24 20:28N 24°14' E 118°25'0 0.0
2014-Jul-24 19:28N 24°14' E 118°25'0 0.0
2014-Jul-24 18:28N 24°14' E 118°25'0 0.0
2014-Jul-24 17:28N 24°14' E 118°25'0 0.0
2014-Jul-24 16:22N 24°14' E 118°25'0 0.0
2014-Jul-24 15:28N 24°14' E 118°25'0 0.0
2014-Jul-24 12:22N 24°14' E 118°25'0 0.0
2014-Jul-24 11:28N 24°14' E 118°25'0 0.0
2014-Jul-24 10:16N 24°14' E 118°25'0 0.0
2014-Jul-24 09:28N 24°14' E 118°25'0 0.0
2014-Jul-24 08:16N 24°14' E 118°25'0 0.1
2014-Jul-24 07:16N 24°14' E 118°25'0 0.0
2014-Jul-24 06:22N 24°14' E 118°25'0 0.0
2014-Jul-24 05:22N 24°14' E 118°25'0 0.1
2014-Jul-24 04:22N 24°14' E 118°25'0 0.0
2014-Jul-24 03:22N 24°14' E 118°25'3 3.7
2014-Jul-24 02:24N 24°11' E 118°23'10 5.1
2014-Jul-24 00:32N 24°03' E 118°18'1110.7
2014-Jul-23 23:30N 23°54' E 118°10'1411.1
2014-Jul-23 22:15N 23°44' E 118°00'811.3
2014-Jul-23 21:31N 23°37' E 117°55'1211.6
2014-Jul-23 20:32N 23°29' E 117°47'1211.7
2014-Jul-23 19:31N 23°19' E 117°39'4611.7
2014-Jul-23 15:31N 22°43' E 117°08'158 5.7
2014-Jul-22 11:32N 22°34' E 114°16'0 0.4
2014-Jul-22 10:17N 22°34' E 114°16'0 0.0
2014-Jul-22 09:33N 22°34' E 114°16'0 0.0
2014-Jul-22 08:27N 22°34' E 114°16'0 0.0
2014-Jul-22 07:33N 22°34' E 114°16'0 0.0
2014-Jul-22 06:33N 22°34' E 114°16'0 0.0
2014-Jul-22 05:31N 22°34' E 114°16'0 0.0
2014-Jul-22 04:33N 22°34' E 114°16'0 0.0
2014-Jul-22 03:19N 22°34' E 114°16'0 0.0
2014-Jul-22 02:33N 22°34' E 114°16'0 0.0
2014-Jul-22 00:31N 22°34' E 114°16'0 0.0
2014-Jul-21 23:33N 22°34' E 114°16'0 0.0
2014-Jul-21 22:33N 22°34' E 114°16'0 0.0
2014-Jul-21 21:33N 22°34' E 114°16'0 0.0
2014-Jul-21 20:33N 22°34' E 114°16'0 0.0
2014-Jul-21 20:18N 22°34' E 114°16'0 0.0
2014-Jul-21 19:32N 22°34' E 114°16'0 0.5
2014-Jul-21 18:33N 22°34' E 114°16'17 3.4
2014-Jul-21 13:33N 22°19' E 114°06'1 0.1
2014-Jul-20 20:12N 22°20' E 114°08'0 0.0
2014-Jul-20 19:30N 22°20' E 114°08'0 0.0
2014-Jul-20 16:24N 22°20' E 114°08'11 5.9
2014-Jul-20 14:31N 22°10' E 114°13'24 2.0
2014-Jul-20 02:07N 22°34' E 114°16'0 0.3
2014-Jul-20 01:32N 22°34' E 114°16'0 0.0
2014-Jul-20 00:32N 22°34' E 114°16'0 0.0
2014-Jul-19 23:32N 22°34' E 114°16'0 0.0
2014-Jul-19 21:32N 22°34' E 114°16'0 0.0
2014-Jul-19 18:26N 22°34' E 114°16'0 0.0
2014-Jul-19 16:32N 22°34' E 114°16'0 0.0
2014-Jul-19 14:26N 22°34' E 114°16'0 0.1
2014-Jul-19 11:26N 22°34' E 114°17'  

Dump ship's entire track history